Lasse Hojbjerg

Scout - FC Midtjylland
4 Dec 2028
Monday
Process

Personality

Adaptability (4) Ambition (10) Controversy (6) Loyalty (11) Pressure (9) Professionalism (15) Sportsmanship (9) Temperament (17)

Profile

Coaching Style Democratic
License Continental Pro
Determination 6
Man Management 13
Motivating 5
Discipline 10
Job Satisfaction
100%
Fatigue
0%
Role Scout
Wage 62.3K p/w
Contract 14.03.2029

Performance

Behaviour Good
Training Effectiveness
40%
Player Development
25%
Injury Prevention
60%
Tactical Implementation
30%

Recent Events

Assessed a player now
Attended a recruitment meeting now
Attended a recruitment meeting now
Attended a recruitment meeting 7d ago
Attended a recruitment meeting 7d ago
Assessed a player 7d ago
Assessed a player 7d ago
Assessed a player 14d ago

Currently Monitoring

120
Player Club Status Ability Confidence Watched Last Observed Latest Vote
Gideon Manaseh Ikorodu City Active 96 / 100 40% 3 29.11.2028 -
Celías Ingenthron Platense Active 121 / 126 40% 2 29.11.2028 -
José Neto Benfica Active 115 / 125 40% 1 28.11.2028 -
Matias Siltanen Malmo FF Active 139 / 135 40% 1 28.11.2028 -
Azizbek To'lqinbekov Bunyodkor Active 109 / 106 40% 2 27.11.2028 -
Diego León Rotherham United Active 125 / 132 40% 1 27.11.2028 -
Daniel Banjaqui Benfica Active 130 / 137 40% 2 23.11.2028 -
Chris Rigg West Ham United Active 140 / 147 40% 4 23.11.2028 -
Joel Ezra Enyimba Active 90 / 110 40% 2 21.11.2028 -
Luis Otávio Orlando City Active 108 / 123 40% 1 21.11.2028 -
Christos Mouzakitis Hull City Active 142 / 148 40% 4 19.11.2028 -
Aytor Herrera Mineros de Guayana Active 90 / 95 40% 3 18.11.2028 -
Noah Markmann Esbjerg Active 132 / 129 40% 4 18.11.2028 -
Roberto Medina La Equidad Active 96 / 101 40% 2 06.11.2028 -
Markus Walker FC Nordsjaelland Active 120 / 130 40% 1 10.10.2028 -
Trey Nyoni Rotherham United Active 158 / 147 40% 5 09.10.2028 -
Sebastian Rodriguez Houston Dynamo Active 120 / 122 40% 2 06.10.2028 -
Tobías Ramírez River Plate Active 137 / 133 40% 1 05.10.2028 -
Felipe Varela Trujillanos Active 91 / 99 40% 1 04.10.2028 -
Honest Ahanor Atalanta Active 140 / 148 40% 7 03.10.2028 -
Estanislao López Colón Active 104 / 102 40% 1 28.08.2028 -
Tomás Orqueida SonderjyskE Active 110 / 114 51% 1 21.08.2028 -
Nicolò Moranduzzo Renate Active 92 / 105 40% 2 24.07.2028 -
Thijs Kraaijeveld USM Alger Negotiating 138 / 128 40% 1 10.07.2028 -
Martim Cunha Porto Active 110 / 119 40% 1 10.07.2028 -
Fiete Arp OB Active 131 / 134 51% 1 26.06.2028 -
Babis Kostoulas Oxford United Active 161 / 150 40% 3 19.06.2028 -
Mike Themsen Randers Active 127 / 128 51% 1 19.06.2028 Monitor
Rio Ngumoha Plymouth Argyle Active 157 / 146 40% 1 19.06.2028 -
Siyabonga Mabena Bidvest Wits Active 143 / 118 40% 4 31.05.2028 -
Mads Abrahamsen Zenit Penza Active 100 / 92 40% 4 31.05.2028 -
Luke Brooke-Smith Chesterfield Active 94 / 107 40% 1 30.05.2028 -
Gabriel Mec Feirense Active 118 / 134 40% 8 27.05.2028 -
Mateus Mané Burnley Active 146 / 149 40% 10 26.05.2028 -
Amin Nabizada Exeter City Active 105 / 114 40% 4 23.05.2028 -
Eli Junior Kroupi Bournemouth Active 128 / 148 40% 4 22.05.2028 -
Romelle Donovan Brentford Active 114 / 133 40% 2 22.05.2028 -
Leo Pecover Swindon Town Active 103 / 104 40% 2 20.05.2028 -
Kerim Alajbegović Modena Active 134 / 140 40% 3 19.05.2028 -
Tyler Fletcher Rotherham United Active 118 / 113 40% 2 19.05.2028 -
Shea Lacey Crystal Palace Active 128 / 134 40% 5 18.05.2028 -
Jake Evans Crewe Alexandra Active 122 / 125 40% 3 17.05.2028 -
Sindre Walle Egeli Udinese Active 134 / 148 40% 9 15.05.2028 -
Kamaldeen Atiemo Wa All Stars Active 115 / 109 40% 1 08.05.2028 -
Jorthy Mokio ADO Den Haag Active 127 / 139 40% 1 08.05.2028 -
Igor Tyjon Barrow AFC Active 109 / 119 40% 2 07.05.2028 -
Gabe Forsyth Colchester United Active 102 / 115 40% 3 06.05.2028 -
Josh Nichols Oldham Athletic Active 110 / 122 40% 5 05.05.2028 -
Kiani Inge Groningen Active 123 / 116 40% 1 04.05.2028 -
Luca Meirelles Kudrivka Active 120 / 124 40% 4 02.05.2028 -
Ryan Kavuma-McQueen Accrington Stanley Active 134 / 124 40% 2 02.05.2028 -
Jan Bürger Northampton Town Active 105 / 130 40% 1 02.05.2028 -
Josh Acheampong Everton Active 139 / 146 40% 3 27.04.2028 -
Konta Ismaily Active 85 / 106 40% 1 27.04.2028 -
Luca Williams-Barnett Walsall Active 142 / 128 40% 2 24.04.2028 -
Ryan McAidoo Oldham Athletic Active 111 / 127 40% 3 19.04.2028 -
Ibrahim Fullah Charlton Athletic Active 118 / 121 40% 2 13.04.2028 -
Ben Broggio Mansfield Town Active 97 / 116 40% 1 09.04.2028 -
Nana Nuhu WAFA Active 113 / 100 40% 2 07.04.2028 -
Riquelme Thompson-Jones Accrington Stanley Active 126 / 117 40% 1 03.04.2028 -
Henrique Carmo Sochi Active 136 / 136 40% 1 30.03.2028 -
Ben Ahmed Kohili Paradou Active 90 / 108 40% 4 31.05.2027 -
Jeremy van Haalen NEC Active 79 / 89 40% 1 31.05.2027 -
Víctor Guzmán Sporting CP Active 113 / 102 40% 5 30.05.2027 -
Fletcher Holman Swindon Town Active 69 / 94 40% 1 26.05.2027 -
Teboho Zwane Ajax Cape Town Active 84 / 97 40% 3 25.05.2027 -
Ryan Oné Sheffield United Active 123 / 123 40% 2 25.05.2027 -
Luke Baartman Ajax Cape Town Active 87 / 114 40% 5 23.05.2027 -
Borna Knezović Casarano Active 91 / 109 40% 2 16.05.2027 -
Leo Castledine Middlesbrough Active 132 / 136 40% 4 14.05.2027 -
Sayed Abu Farchi Maccabi Tel Aviv Active 99 / 129 40% 1 13.05.2027 -
Chineme Chinonso Ikorodu City Active 109 / 96 40% 1 10.05.2027 -
Matvii Ponomarenko Dynamo Kyiv Active 129 / 124 40% 3 08.05.2027 -
Naledi Hlongwane Wa All Stars Active 101 / 99 40% 5 07.05.2027 -
George Brown Sheffield Wednesday Active 113 / 110 40% 1 30.04.2027 -
Darlvin Yeboah Bechem United Active 70 / 88 40% 2 23.04.2027 -
Mikel Gogorza Brondby Active 120 / 132 40% 3 19.04.2027 -
Giuseppe Coppola Picerno Active 77 / 108 40% 2 13.04.2027 -
Lwanda Mbanjwa Platinum Stars Active 102 / 96 40% 1 13.04.2027 -
Miloš Jovičić Zabbar St. Patrick Active 74 / 89 40% 2 11.04.2027 -
Máximo Seggio Crawley Town Active 66 / 94 40% 1 10.04.2027 -
Rocco Vata Watford Active 104 / 124 40% 1 05.04.2027 -
Lorenzo De Leo Renate Active 113 / 100 40% 1 04.04.2027 -
Joseph George Aigle Royal de Moungo Active 95 / 86 40% 1 03.04.2027 -
Serge Daura PWD Bamenda Active 107 / 92 40% 1 25.03.2027 -
Roberto Iliev Slavia Sofia Active 104 / 105 40% 1 08.03.2027 -
Max Johnston Derby County Active 127 / 118 40% 2 01.01.2027 -
Sorba Thomas Stoke City Active 150 / 136 40% 2 31.12.2026 -
Bradley Zwane SuperSport United Active 115 / 106 40% 3 30.12.2026 -
Ilyas Ansah Hull City Active 144 / 133 40% 1 26.12.2026 -
Robert FC Copenhagen Active 118 / 125 40% 3 25.12.2026 -
Alex Robertson Cardiff City Active 133 / 122 40% 1 22.12.2026 -
Oston O'runov Persepolis Active 123 / 127 40% 3 21.12.2026 -
Jacob Greaves Ipswich Town Active 122 / 143 40% 1 20.12.2026 -
Anel Ahmedhodžić Burnley Active 129 / 125 40% 1 20.12.2026 -
Toby Collyer West Bromwich Albion Active 118 / 125 40% 1 17.12.2026 -
Ibrahim Adel FC Nordsjaelland Active 136 / 129 40% 1 14.12.2026 -
Dennis Cirkin Queens Park Rangers Active 142 / 130 40% 1 13.12.2026 -
Luis Binks Brondby Active 123 / 127 40% 1 10.12.2026 -
Finn Azaz Southampton Active 119 / 123 40% 2 09.12.2026 -
Kristian Arnstad FC Copenhagen Active 135 / 131 40% 1 01.12.2026 -
Jens Petter Hauge Bodo/Glimt Active 134 / 133 40% 1 21.11.2026 -
Mads Frøkjær Brondby Active 121 / 112 40% 1 21.11.2026 -
Marcelo Allende Mamelodi Sundowns Active 151 / 126 40% 2 20.11.2026 -
Manu Morlanes Mallorca Active 151 / 131 40% 1 16.11.2026 -
Tobias Bech AGF Active 136 / 133 40% 2 14.11.2026 -
Mohammad Mehdi Mohebi Persepolis Active 112 / 117 40% 2 12.11.2026 -
Tyrhys Dolan Espanyol Active 152 / 141 40% 2 08.11.2026 -
Telasco Segovia Inter Miami CF Active 122 / 131 40% 1 30.10.2026 -
Conrad Wallem Djurgarden Active 136 / 123 40% 2 28.10.2026 -
Mariano Bracamonte Deportivo Riestra Active 128 / 113 40% 1 28.10.2026 -
Sota Kitano Red Bull Salzburg Active 121 / 119 40% 1 21.10.2026 -
Petar Stanić Ludogorets Active 136 / 134 40% 1 20.10.2026 -
Rasmus Carstensen AGF Active 121 / 120 40% 1 17.10.2026 -
Kornelius Hansen Aalborg Active 118 / 107 40% 1 07.10.2026 -
Santiago Rodríguez Columbus Crew Active 128 / 123 40% 1 23.09.2026 -
Facundo Mura Inter Miami CF Active 134 / 124 40% 1 17.09.2026 -
Jesus Ferreira Seattle Sounders Active 116 / 127 40% 1 16.09.2026 -
Joaquín Pereyra Minnesota United FC Active 122 / 132 40% 2 14.09.2026 -
Lukas Engel Real Salt Lake Active 119 / 117 40% 1 14.09.2026 -